KV4LA Weather Reports


Display with metric or nautical units.
time (UTC)temp
F
wind
direction
speed
MPH
gust
MPH
rain 1hr
in
rain 24hr
in
rain mn
in
humidity
%
barometer
mb
20240416103044 62 17 2.0 0.0 0.00 0.00 0.00 86 1017.5
20240416101545 61 350 1.0 0.0 0.00 0.00 0.00 93 1016.9
20240416100042 61 317 0.0 0.0 0.00 0.00 0.00 93 1016.5
20240416094535 62 302 0.0 0.0 0.00 0.00 0.00 92 1016.1
20240416093033 62 302 0.0 0.0 0.00 0.00 0.00 92 1015.5
20240416091535 62 318 0.0 0.0 0.00 0.00 0.00 91 1015.3
20240416090039 62 302 1.0 0.0 0.00 0.00 0.00 91 1015.2
20240416084526 62 317 1.0 0.0 0.00 0.00 0.00 92 1015.0
20240416083023 62 312 1.0 0.0 0.00 0.00 0.00 92 1014.8
20240416081522 62 296 2.0 0.0 0.00 0.00 0.00 93 1014.6
20240416080039 62 321 2.0 0.0 0.00 0.00 0.00 94 1014.1
20240416074525 62 282 0.0 0.0 0.00 0.00 0.00 94 1013.5
20240416073017 62 282 0.0 0.0 0.00 0.00 0.00 95 1013.3
20240416071528 62 282 0.0 0.0 0.00 0.00 0.00 94 1013.0
20240416070016 62 282 0.0 0.0 0.00 0.00 0.00 94 1012.9
20240416064517 62 282 0.0 0.0 0.00 0.00 0.00 94 1012.7
20240416063014 63 282 0.0 0.0 0.00 0.00 0.00 94 1012.7
20240416061512 63 282 0.0 0.0 0.00 0.00 0.00 94 1012.4
20240416060010 63 282 0.0 0.0 0.00 0.00 0.00 94 1012.5
20240416054510 63 282 0.0 0.0 0.00 0.00 0.00 93 1012.6
20240416053006 63 282 0.0 0.0 0.00 0.00 0.00 94 1012.8
20240416051505 63 282 0.0 0.0 0.00 0.00 0.00 94 1013.0
20240416050010 63 282 0.0 0.0 0.00 0.00 0.00 94 1013.1
20240416044509 63 282 0.0 0.0 0.00 0.00 0.00 94 1013.3
20240416043001 63 269 0.0 0.0 0.00 0.00 0.00 94 1013.8
20240416041600 63 282 0.0 0.0 0.00 0.00 0.00 93 1013.4
20240416040059 63 175 0.0 0.0 0.00 0.00 0.00 93 1013.1
20240416034629 63 223 1.0 0.0 0.00 0.00 0.34 93 1013.6
20240416033104 63 204 2.0 0.0 0.00 0.00 0.31 93 1014.4
20240416031557 64 234 0.0 0.0 0.00 0.00 0.27 91 1015.1
20240416030053 64 234 1.0 0.0 0.00 0.00 0.23 90 1015.1
20240416024601 65 5 0.0 0.0 0.00 0.00 0.17 89 1015.1
20240416023115 65 30 2.0 0.0 0.00 0.00 0.12 88 1015.5
20240416021550 65 348 3.0 0.0 0.00 0.00 0.08 85 1016.3
20240416020046 67 355 3.0 0.0 0.00 0.00 0.03 79 1015.5
20240416014549 69 53 2.0 0.0 0.00 0.00 0.00 72 1014.3
20240416013046 70 69 4.0 0.0 0.00 0.00 0.00 70 1013.5
20240416011547 72 16 2.0 0.0 0.00 0.00 0.00 63 1013.9
20240416010039 73 54 4.0 0.0 0.00 0.00 0.00 57 1013.2
20240416004540 75 355 6.0 0.0 0.00 0.00 0.00 52 1012.6
20240416003033 78 305 0.0 0.0 0.00 0.00 0.00 49 1010.9
20240416001533 79 238 0.0 0.0 0.00 0.00 0.00 44 1010.2
20240416000037 80 238 0.0 0.0 0.00 0.00 0.00 43 1009.8
20240415234532 81 238 0.0 0.0 0.00 0.00 0.00 41 1009.4
20240415233043 81 238 0.0 0.0 0.00 0.00 0.00 41 1009.1
20240415231532 82 238 0.0 0.0 0.00 0.00 0.00 40 1008.9
20240415230039 83 280 0.0 0.0 0.00 0.00 0.00 38 1008.8
20240415224534 83 219 0.0 0.0 0.00 0.00 0.00 39 1008.7
20240415223035 84 165 1.0 0.0 0.00 0.00 0.00 38 1008.6
20240415221529 84 260 1.0 0.0 0.00 0.00 0.00 37 1008.6
20240415220033 84 236 1.0 0.0 0.00 0.00 0.00 36 1008.5
20240415214528 85 231 1.0 0.0 0.00 0.00 0.00 35 1008.7
20240415213028 85 213 1.0 0.0 0.00 0.00 0.00 38 1008.7
20240415211527 86 182 1.0 0.0 0.00 0.00 0.00 36 1008.7
20240415210026 86 277 2.0 0.0 0.00 0.00 0.00 33 1008.8
20240415204533 86 202 1.0 0.0 0.00 0.00 0.00 34 1008.8
20240415203026 87 215 1.0 0.0 0.00 0.00 0.00 32 1008.8
20240415201528 88 226 1.0 0.0 0.00 0.00 0.00 32 1008.9
20240415200022 89 232 3.0 0.0 0.00 0.00 0.00 31 1009.0
20240415194520 89 277 1.0 0.0 0.00 0.00 0.00 31 1009.0
20240415193017 88 135 1.0 0.0 0.00 0.00 0.00 33 1009.0
20240415191516 86 237 1.0 0.0 0.00 0.00 0.00 33 1009.2
20240415190012 86 184 2.0 0.0 0.00 0.00 0.00 32 1009.5
20240415184510 86 259 1.0 0.0 0.00 0.00 0.00 33 1009.6
20240415183010 86 207 1.0 0.0 0.00 0.00 0.00 33 1009.8
20240415181508 86 183 2.0 0.0 0.00 0.00 0.00 32 1010.0
20240415180008 86 236 1.0 0.0 0.00 0.00 0.00 32 1010.1
20240415174505 85 95 1.0 0.0 0.00 0.00 0.00 31 1010.2
20240415173014 85 12 1.0 0.0 0.00 0.00 0.00 33 1010.1
20240415171503 85 263 2.0 0.0 0.00 0.00 0.00 35 1010.3
20240415170120 84 284 2.0 0.0 0.00 0.00 0.00 33 1010.4
20240415164600 84 329 1.0 0.0 0.00 0.00 0.00 35 1010.5
20240415163056 84 275 2.0 0.0 0.00 0.00 0.00 38 1010.7
20240415161554 83 251 1.0 0.0 0.00 0.00 0.00 41 1010.8
20240415160055 82 221 1.0 0.0 0.00 0.00 0.00 38 1010.9
20240415154548 81 256 1.0 0.0 0.00 0.00 0.00 40 1011.2
20240415153044 80 330 2.0 0.0 0.00 0.00 0.00 43 1011.3
20240415151543 78 266 1.0 0.0 0.00 0.00 0.00 44 1011.5
20240415150040 76 326 2.0 0.0 0.00 0.00 0.00 47 1011.5
20240415144532 74 249 2.0 0.0 0.00 0.00 0.00 51 1011.6
20240415143031 72 279 1.0 0.0 0.00 0.00 0.00 54 1011.7
20240415141526 71 292 1.0 0.0 0.00 0.00 0.00 56 1011.7
20240415140021 69 288 1.0 0.0 0.00 0.00 0.00 58 1011.7
20240415134517 67 280 1.0 0.0 0.00 0.00 0.00 60 1011.5
20240415133015 66 267 0.0 0.0 0.00 0.00 0.00 61 1011.4
20240415131517 66 227 1.0 0.0 0.00 0.00 0.00 62 1011.4
20240415130015 66 275 0.0 0.0 0.00 0.00 0.00 63 1011.3
20240415124512 65 267 1.0 0.0 0.00 0.00 0.00 62 1011.2
20240415123009 64 227 0.0 0.0 0.00 0.00 0.00 63 1011.2
20240415121506 63 227 0.0 0.0 0.00 0.00 0.00 63 1011.4
20240415120023 63 227 0.0 0.0 0.00 0.00 0.00 62 1011.4
20240415114507 62 227 0.0 0.0 0.00 0.00 0.00 63 1011.4
20240415113004 62 222 0.0 0.0 0.00 0.00 0.00 64 1011.3
20240415111503 60 222 0.0 0.0 0.00 0.00 0.00 68 1011.1
20240415110106 59 222 0.0 0.0 0.00 0.00 0.00 67 1010.8
20240415104559 59 222 0.0 0.0 0.00 0.00 0.00 66 1010.6